Terminal Aerodrome Forecast
Issued by NWS

Home | Current Version | Previous Version | Text Only | Print | Product List | Glossary On
Versions: 1 2 3 4 5 6 7 8 9 10 11 12
000
FTUS42 TJSJ 280500 RRA
TAFJPS
TAF
TJPS 280544Z 2806/2906 VRB03KT P6SM SCT050
     FM281500 14010KT P6SM VCSH FEW025 SCT040
     FM282300 06007KT P6SM VCSH SCT030 SCT060
      AMD NOT SKED 2812/2903=

USA.gov is the U.S. government's official web portal to all federal, state and local government web resources and services.